sensor_id;sensor_type;location;lat;lon;timestamp;temperature;humidity
49242;DHT22;35079;52.704;13.814;2024-02-21T00:02:08;7.00;99.90
49242;DHT22;35079;52.704;13.814;2024-02-21T00:04:33;7.00;99.90
49242;DHT22;35079;52.704;13.814;2024-02-21T00:07:00;7.00;99.90
49242;DHT22;35079;52.704;13.814;2024-02-21T00:09:25;7.00;99.90
49242;DHT22;35079;52.704;13.814;2024-02-21T00:11:51;7.00;99.90
49242;DHT22;35079;52.704;13.814;2024-02-21T00:14:17;7.00;99.90
49242;DHT22;35079;52.704;13.814;2024-02-21T00:16:43;7.00;99.90
49242;DHT22;35079;52.704;13.814;2024-02-21T00:19:08;7.10;99.90
49242;DHT22;35079;52.704;13.814;2024-02-21T00:21:34;7.00;99.90
49242;DHT22;35079;52.704;13.814;2024-02-21T00:23:59;7.00;99.90
49242;DHT22;35079;52.704;13.814;2024-02-21T00:26:26;7.00;99.90
49242;DHT22;35079;52.704;13.814;2024-02-21T00:28:52;7.00;99.90
49242;DHT22;35079;52.704;13.814;2024-02-21T00:31:18;7.00;99.90
49242;DHT22;35079;52.704;13.814;2024-02-21T00:33:44;7.00;99.90
49242;DHT22;35079;52.704;13.814;2024-02-21T00:36:09;7.10;99.90
49242;DHT22;35079;52.704;13.814;2024-02-21T00:38:35;7.10;99.90
49242;DHT22;35079;52.704;13.814;2024-02-21T00:41:00;7.10;99.90
49242;DHT22;35079;52.704;13.814;2024-02-21T00:43:26;7.10;99.90
49242;DHT22;35079;52.704;13.814;2024-02-21T00:45:52;7.10;99.90
49242;DHT22;35079;52.704;13.814;2024-02-21T00:48:17;7.10;99.90
49242;DHT22;35079;52.704;13.814;2024-02-21T00:50:43;7.10;99.90
49242;DHT22;35079;52.704;13.814;2024-02-21T00:53:08;7.10;99.90
49242;DHT22;35079;52.704;13.814;2024-02-21T00:55:35;7.10;99.90
49242;DHT22;35079;52.704;13.814;2024-02-21T00:58:01;7.20;99.90
49242;DHT22;35079;52.704;13.814;2024-02-21T01:00:26;7.20;99.90
49242;DHT22;35079;52.704;13.814;2024-02-21T01:02:52;7.20;99.90
49242;DHT22;35079;52.704;13.814;2024-02-21T01:05:18;7.30;99.90
49242;DHT22;35079;52.704;13.814;2024-02-21T01:07:44;7.20;99.90
49242;DHT22;35079;52.704;13.814;2024-02-21T01:10:10;7.30;99.90
49242;DHT22;35079;52.704;13.814;2024-02-21T01:12:36;7.30;99.90
49242;DHT22;35079;52.704;13.814;2024-02-21T01:15:02;7.30;99.90
49242;DHT22;35079;52.704;13.814;2024-02-21T01:17:28;7.20;99.90
49242;DHT22;35079;52.704;13.814;2024-02-21T01:19:53;7.30;99.90
49242;DHT22;35079;52.704;13.814;2024-02-21T01:22:19;7.30;99.90
49242;DHT22;35079;52.704;13.814;2024-02-21T01:24:45;7.30;99.90
49242;DHT22;35079;52.704;13.814;2024-02-21T01:27:10;7.20;99.90
49242;DHT22;35079;52.704;13.814;2024-02-21T01:29:36;7.20;99.90
49242;DHT22;35079;52.704;13.814;2024-02-21T01:32:01;7.20;99.90
49242;DHT22;35079;52.704;13.814;2024-02-21T01:34:27;7.20;99.90
49242;DHT22;35079;52.704;13.814;2024-02-21T01:36:53;7.20;99.90
49242;DHT22;35079;52.704;13.814;2024-02-21T01:39:18;7.30;99.90
49242;DHT22;35079;52.704;13.814;2024-02-21T01:41:44;7.20;99.90
49242;DHT22;35079;52.704;13.814;2024-02-21T01:44:09;7.30;99.90
49242;DHT22;35079;52.704;13.814;2024-02-21T01:46:35;7.30;99.90
49242;DHT22;35079;52.704;13.814;2024-02-21T01:49:01;7.30;99.90
49242;DHT22;35079;52.704;13.814;2024-02-21T01:51:27;7.30;99.90
49242;DHT22;35079;52.704;13.814;2024-02-21T01:53:55;7.30;99.90
49242;DHT22;35079;52.704;13.814;2024-02-21T01:56:22;7.40;99.90
49242;DHT22;35079;52.704;13.814;2024-02-21T01:58:48;7.40;99.90
49242;DHT22;35079;52.704;13.814;2024-02-21T02:01:14;7.40;99.90
49242;DHT22;35079;52.704;13.814;2024-02-21T02:03:40;7.40;99.90
49242;DHT22;35079;52.704;13.814;2024-02-21T02:06:06;7.40;99.90
49242;DHT22;35079;52.704;13.814;2024-02-21T02:08:35;7.40;99.90
49242;DHT22;35079;52.704;13.814;2024-02-21T02:11:01;7.40;99.90
49242;DHT22;35079;52.704;13.814;2024-02-21T02:13:27;7.50;99.90
49242;DHT22;35079;52.704;13.814;2024-02-21T02:15:52;7.50;99.90
49242;DHT22;35079;52.704;13.814;2024-02-21T02:18:20;7.50;99.90
49242;DHT22;35079;52.704;13.814;2024-02-21T02:20:46;7.60;99.90
49242;DHT22;35079;52.704;13.814;2024-02-21T02:23:22;7.50;99.90
49242;DHT22;35079;52.704;13.814;2024-02-21T02:25:48;7.60;99.90
49242;DHT22;35079;52.704;13.814;2024-02-21T02:28:17;7.70;99.90
49242;DHT22;35079;52.704;13.814;2024-02-21T02:30:43;7.60;99.90
49242;DHT22;35079;52.704;13.814;2024-02-21T02:33:09;7.60;99.90
49242;DHT22;35079;52.704;13.814;2024-02-21T02:35:35;7.70;99.90
49242;DHT22;35079;52.704;13.814;2024-02-21T02:38:02;7.70;99.90
49242;DHT22;35079;52.704;13.814;2024-02-21T02:40:28;7.70;99.90
49242;DHT22;35079;52.704;13.814;2024-02-21T02:42:54;7.70;99.90
49242;DHT22;35079;52.704;13.814;2024-02-21T02:45:23;7.70;99.90
49242;DHT22;35079;52.704;13.814;2024-02-21T02:47:49;7.70;99.90
49242;DHT22;35079;52.704;13.814;2024-02-21T02:50:15;7.70;99.90
49242;DHT22;35079;52.704;13.814;2024-02-21T02:52:41;7.70;99.90
49242;DHT22;35079;52.704;13.814;2024-02-21T02:55:07;7.80;99.90
49242;DHT22;35079;52.704;13.814;2024-02-21T02:57:33;7.70;99.90
49242;DHT22;35079;52.704;13.814;2024-02-21T02:59:58;7.80;99.90
49242;DHT22;35079;52.704;13.814;2024-02-21T03:02:24;7.80;99.90
49242;DHT22;35079;52.704;13.814;2024-02-21T03:04:50;7.80;99.90
49242;DHT22;35079;52.704;13.814;2024-02-21T03:07:16;7.70;99.90
49242;DHT22;35079;52.704;13.814;2024-02-21T03:09:42;7.80;99.90
49242;DHT22;35079;52.704;13.814;2024-02-21T03:12:08;7.80;99.90
49242;DHT22;35079;52.704;13.814;2024-02-21T03:14:34;7.80;99.90
49242;DHT22;35079;52.704;13.814;2024-02-21T03:16:59;7.80;99.90
49242;DHT22;35079;52.704;13.814;2024-02-21T03:19:25;7.80;99.90
49242;DHT22;35079;52.704;13.814;2024-02-21T03:21:51;7.80;99.90
49242;DHT22;35079;52.704;13.814;2024-02-21T03:24:18;7.80;99.90
49242;DHT22;35079;52.704;13.814;2024-02-21T03:26:44;7.70;99.90
49242;DHT22;35079;52.704;13.814;2024-02-21T03:29:10;7.80;99.90
49242;DHT22;35079;52.704;13.814;2024-02-21T03:31:37;7.70;99.90
49242;DHT22;35079;52.704;13.814;2024-02-21T03:34:03;7.70;99.90
49242;DHT22;35079;52.704;13.814;2024-02-21T03:36:28;7.70;99.90
49242;DHT22;35079;52.704;13.814;2024-02-21T03:38:54;7.70;99.90
49242;DHT22;35079;52.704;13.814;2024-02-21T03:41:20;7.70;99.90
49242;DHT22;35079;52.704;13.814;2024-02-21T03:43:46;7.70;99.90
49242;DHT22;35079;52.704;13.814;2024-02-21T03:46:12;7.70;99.90
49242;DHT22;35079;52.704;13.814;2024-02-21T03:48:37;7.70;99.90
49242;DHT22;35079;52.704;13.814;2024-02-21T03:51:03;7.60;99.90
49242;DHT22;35079;52.704;13.814;2024-02-21T03:53:29;7.60;99.90
49242;DHT22;35079;52.704;13.814;2024-02-21T03:55:55;7.60;99.90
49242;DHT22;35079;52.704;13.814;2024-02-21T03:58:21;7.50;99.90
49242;DHT22;35079;52.704;13.814;2024-02-21T04:00:47;7.60;99.90
49242;DHT22;35079;52.704;13.814;2024-02-21T04:03:13;7.50;99.90
49242;DHT22;35079;52.704;13.814;2024-02-21T04:05:39;7.50;99.90
49242;DHT22;35079;52.704;13.814;2024-02-21T04:08:05;7.50;99.90
49242;DHT22;35079;52.704;13.814;2024-02-21T04:10:31;7.50;99.90
49242;DHT22;35079;52.704;13.814;2024-02-21T04:12:56;7.60;99.90
49242;DHT22;35079;52.704;13.814;2024-02-21T04:15:22;7.50;99.90
49242;DHT22;35079;52.704;13.814;2024-02-21T04:17:48;7.50;99.90
49242;DHT22;35079;52.704;13.814;2024-02-21T04:20:15;7.50;99.90
49242;DHT22;35079;52.704;13.814;2024-02-21T04:22:45;7.60;99.90
49242;DHT22;35079;52.704;13.814;2024-02-21T04:25:11;7.60;99.90
49242;DHT22;35079;52.704;13.814;2024-02-21T04:27:38;7.60;99.90
49242;DHT22;35079;52.704;13.814;2024-02-21T04:30:05;7.50;99.90
49242;DHT22;35079;52.704;13.814;2024-02-21T04:32:31;7.50;99.90
49242;DHT22;35079;52.704;13.814;2024-02-21T04:34:57;7.60;99.90
49242;DHT22;35079;52.704;13.814;2024-02-21T04:37:23;7.60;99.90
49242;DHT22;35079;52.704;13.814;2024-02-21T04:39:49;7.50;99.90
49242;DHT22;35079;52.704;13.814;2024-02-21T04:42:15;7.60;99.90
49242;DHT22;35079;52.704;13.814;2024-02-21T04:44:41;7.60;99.90
49242;DHT22;35079;52.704;13.814;2024-02-21T04:47:07;7.60;99.90
49242;DHT22;35079;52.704;13.814;2024-02-21T04:49:33;7.60;99.90
49242;DHT22;35079;52.704;13.814;2024-02-21T04:51:59;7.70;99.90
49242;DHT22;35079;52.704;13.814;2024-02-21T04:54:24;7.70;99.90
49242;DHT22;35079;52.704;13.814;2024-02-21T04:56:51;7.60;99.90
49242;DHT22;35079;52.704;13.814;2024-02-21T04:59:17;7.60;99.90
49242;DHT22;35079;52.704;13.814;2024-02-21T05:01:42;7.70;99.90
49242;DHT22;35079;52.704;13.814;2024-02-21T05:04:08;7.70;99.90
49242;DHT22;35079;52.704;13.814;2024-02-21T05:06:41;7.70;99.90
49242;DHT22;35079;52.704;13.814;2024-02-21T05:09:08;7.70;99.90
49242;DHT22;35079;52.704;13.814;2024-02-21T05:11:37;7.70;99.90
49242;DHT22;35079;52.704;13.814;2024-02-21T05:14:05;7.70;99.90
49242;DHT22;35079;52.704;13.814;2024-02-21T05:16:34;7.70;99.90
49242;DHT22;35079;52.704;13.814;2024-02-21T05:19:00;7.70;99.90
49242;DHT22;35079;52.704;13.814;2024-02-21T05:21:25;7.70;99.90
49242;DHT22;35079;52.704;13.814;2024-02-21T05:23:52;7.70;99.90
49242;DHT22;35079;52.704;13.814;2024-02-21T05:26:24;7.70;99.90
49242;DHT22;35079;52.704;13.814;2024-02-21T05:28:51;7.70;99.90
49242;DHT22;35079;52.704;13.814;2024-02-21T05:31:18;7.70;99.90
49242;DHT22;35079;52.704;13.814;2024-02-21T05:33:44;7.70;99.90
49242;DHT22;35079;52.704;13.814;2024-02-21T05:36:10;7.70;99.90
49242;DHT22;35079;52.704;13.814;2024-02-21T05:38:36;7.60;99.90
49242;DHT22;35079;52.704;13.814;2024-02-21T05:41:03;7.60;99.90
49242;DHT22;35079;52.704;13.814;2024-02-21T05:43:28;7.60;99.90
49242;DHT22;35079;52.704;13.814;2024-02-21T05:45:54;7.70;99.90
49242;DHT22;35079;52.704;13.814;2024-02-21T05:48:21;7.70;99.90
49242;DHT22;35079;52.704;13.814;2024-02-21T05:50:47;7.70;99.90
49242;DHT22;35079;52.704;13.814;2024-02-21T05:53:13;7.70;99.90
49242;DHT22;35079;52.704;13.814;2024-02-21T05:55:39;7.60;99.90
49242;DHT22;35079;52.704;13.814;2024-02-21T05:58:04;7.60;99.90
49242;DHT22;35079;52.704;13.814;2024-02-21T06:00:31;7.70;99.90
49242;DHT22;35079;52.704;13.814;2024-02-21T06:02:57;7.70;99.90
49242;DHT22;35079;52.704;13.814;2024-02-21T06:05:23;7.60;99.90
49242;DHT22;35079;52.704;13.814;2024-02-21T06:07:49;7.70;99.90
49242;DHT22;35079;52.704;13.814;2024-02-21T06:10:14;7.60;99.90
49242;DHT22;35079;52.704;13.814;2024-02-21T06:12:40;7.70;99.90
49242;DHT22;35079;52.704;13.814;2024-02-21T06:15:06;7.60;99.90
49242;DHT22;35079;52.704;13.814;2024-02-21T06:17:32;7.60;99.90
49242;DHT22;35079;52.704;13.814;2024-02-21T06:19:58;7.60;99.90
49242;DHT22;35079;52.704;13.814;2024-02-21T06:22:23;7.60;99.90
49242;DHT22;35079;52.704;13.814;2024-02-21T06:24:49;7.70;99.90
49242;DHT22;35079;52.704;13.814;2024-02-21T06:27:15;7.70;99.90
49242;DHT22;35079;52.704;13.814;2024-02-21T06:29:42;7.70;99.90
49242;DHT22;35079;52.704;13.814;2024-02-21T06:32:08;7.70;99.90
49242;DHT22;35079;52.704;13.814;2024-02-21T06:34:34;7.70;99.90
49242;DHT22;35079;52.704;13.814;2024-02-21T06:36:59;7.70;99.90
49242;DHT22;35079;52.704;13.814;2024-02-21T06:39:25;7.70;99.90
49242;DHT22;35079;52.704;13.814;2024-02-21T06:41:51;7.80;99.90
49242;DHT22;35079;52.704;13.814;2024-02-21T06:44:18;7.80;99.90
49242;DHT22;35079;52.704;13.814;2024-02-21T06:46:43;7.80;99.90
49242;DHT22;35079;52.704;13.814;2024-02-21T06:49:09;7.80;99.90
49242;DHT22;35079;52.704;13.814;2024-02-21T06:51:43;7.70;99.90
49242;DHT22;35079;52.704;13.814;2024-02-21T06:54:09;7.80;99.90
49242;DHT22;35079;52.704;13.814;2024-02-21T06:56:36;7.80;99.90
49242;DHT22;35079;52.704;13.814;2024-02-21T06:59:02;7.80;99.90
49242;DHT22;35079;52.704;13.814;2024-02-21T07:01:31;7.90;99.90
49242;DHT22;35079;52.704;13.814;2024-02-21T07:03:57;7.90;99.90
49242;DHT22;35079;52.704;13.814;2024-02-21T07:06:23;7.90;99.90
49242;DHT22;35079;52.704;13.814;2024-02-21T07:08:48;7.90;99.90
49242;DHT22;35079;52.704;13.814;2024-02-21T07:11:14;7.90;99.90
49242;DHT22;35079;52.704;13.814;2024-02-21T07:13:39;7.90;99.90
49242;DHT22;35079;52.704;13.814;2024-02-21T07:16:06;7.90;99.90
49242;DHT22;35079;52.704;13.814;2024-02-21T07:18:32;7.80;99.90
49242;DHT22;35079;52.704;13.814;2024-02-21T07:20:57;7.90;99.90
49242;DHT22;35079;52.704;13.814;2024-02-21T07:23:24;7.90;99.90
49242;DHT22;35079;52.704;13.814;2024-02-21T07:25:49;7.90;99.90
49242;DHT22;35079;52.704;13.814;2024-02-21T07:28:15;7.90;99.90
49242;DHT22;35079;52.704;13.814;2024-02-21T07:30:42;7.90;99.90
49242;DHT22;35079;52.704;13.814;2024-02-21T07:33:07;7.90;99.90
49242;DHT22;35079;52.704;13.814;2024-02-21T07:35:33;7.90;99.90
49242;DHT22;35079;52.704;13.814;2024-02-21T07:37:59;7.90;99.90
49242;DHT22;35079;52.704;13.814;2024-02-21T07:40:25;7.90;99.90
49242;DHT22;35079;52.704;13.814;2024-02-21T07:42:50;8.00;99.90
49242;DHT22;35079;52.704;13.814;2024-02-21T07:45:16;8.00;99.90
49242;DHT22;35079;52.704;13.814;2024-02-21T07:47:41;8.00;99.90
49242;DHT22;35079;52.704;13.814;2024-02-21T07:50:07;8.10;99.90
49242;DHT22;35079;52.704;13.814;2024-02-21T07:52:33;8.10;99.90
49242;DHT22;35079;52.704;13.814;2024-02-21T07:54:59;8.00;99.90
49242;DHT22;35079;52.704;13.814;2024-02-21T07:57:25;8.00;99.90
49242;DHT22;35079;52.704;13.814;2024-02-21T07:59:50;8.10;99.90
49242;DHT22;35079;52.704;13.814;2024-02-21T08:02:16;8.10;99.90
49242;DHT22;35079;52.704;13.814;2024-02-21T08:04:42;8.20;99.90
49242;DHT22;35079;52.704;13.814;2024-02-21T08:07:09;8.10;99.90
49242;DHT22;35079;52.704;13.814;2024-02-21T08:09:35;8.20;99.90
49242;DHT22;35079;52.704;13.814;2024-02-21T08:12:02;8.20;99.90
49242;DHT22;35079;52.704;13.814;2024-02-21T08:14:27;8.10;99.90
49242;DHT22;35079;52.704;13.814;2024-02-21T08:16:53;8.20;99.90
49242;DHT22;35079;52.704;13.814;2024-02-21T08:19:20;8.20;99.90
49242;DHT22;35079;52.704;13.814;2024-02-21T08:21:45;8.20;99.90
49242;DHT22;35079;52.704;13.814;2024-02-21T08:24:14;8.30;99.90
49242;DHT22;35079;52.704;13.814;2024-02-21T08:26:44;8.30;99.90
49242;DHT22;35079;52.704;13.814;2024-02-21T08:29:13;8.30;99.90
49242;DHT22;35079;52.704;13.814;2024-02-21T08:31:38;8.30;99.90
49242;DHT22;35079;52.704;13.814;2024-02-21T08:34:04;8.30;99.90
49242;DHT22;35079;52.704;13.814;2024-02-21T08:36:30;8.40;99.90
49242;DHT22;35079;52.704;13.814;2024-02-21T08:38:56;8.40;99.90
49242;DHT22;35079;52.704;13.814;2024-02-21T08:41:24;8.40;99.90
49242;DHT22;35079;52.704;13.814;2024-02-21T08:43:51;8.40;99.90
49242;DHT22;35079;52.704;13.814;2024-02-21T08:46:17;8.40;99.90
49242;DHT22;35079;52.704;13.814;2024-02-21T08:48:43;8.50;99.90
49242;DHT22;35079;52.704;13.814;2024-02-21T08:51:12;8.60;99.90
49242;DHT22;35079;52.704;13.814;2024-02-21T08:53:37;8.60;99.90
49242;DHT22;35079;52.704;13.814;2024-02-21T08:56:03;8.50;99.90
49242;DHT22;35079;52.704;13.814;2024-02-21T08:58:29;8.50;99.90
49242;DHT22;35079;52.704;13.814;2024-02-21T09:00:55;8.50;99.90
49242;DHT22;35079;52.704;13.814;2024-02-21T09:03:20;8.60;99.90
49242;DHT22;35079;52.704;13.814;2024-02-21T09:05:46;8.60;99.90
49242;DHT22;35079;52.704;13.814;2024-02-21T09:08:12;8.70;99.90
49242;DHT22;35079;52.704;13.814;2024-02-21T09:10:39;8.70;99.90
49242;DHT22;35079;52.704;13.814;2024-02-21T09:13:05;8.70;99.90
49242;DHT22;35079;52.704;13.814;2024-02-21T09:15:32;8.80;99.90
49242;DHT22;35079;52.704;13.814;2024-02-21T09:17:58;8.90;99.90
49242;DHT22;35079;52.704;13.814;2024-02-21T09:20:24;8.90;99.90
49242;DHT22;35079;52.704;13.814;2024-02-21T09:22:49;9.00;99.90
49242;DHT22;35079;52.704;13.814;2024-02-21T09:25:15;9.00;99.90
49242;DHT22;35079;52.704;13.814;2024-02-21T09:27:45;9.10;99.90
49242;DHT22;35079;52.704;13.814;2024-02-21T09:30:11;9.10;99.90
49242;DHT22;35079;52.704;13.814;2024-02-21T09:32:37;9.10;99.90
49242;DHT22;35079;52.704;13.814;2024-02-21T09:35:04;9.10;99.90
49242;DHT22;35079;52.704;13.814;2024-02-21T09:37:53;9.20;99.90
49242;DHT22;35079;52.704;13.814;2024-02-21T09:40:20;9.30;99.90
49242;DHT22;35079;52.704;13.814;2024-02-21T09:43:02;9.40;99.90
49242;DHT22;35079;52.704;13.814;2024-02-21T09:45:33;9.40;99.90
49242;DHT22;35079;52.704;13.814;2024-02-21T09:54:58;9.60;99.90
49242;DHT22;35079;52.704;13.814;2024-02-21T09:58:18;9.80;99.90
49242;DHT22;35079;52.704;13.814;2024-02-21T10:07:54;9.90;99.90
49242;DHT22;35079;52.704;13.814;2024-02-21T10:14:59;10.00;99.90
49242;DHT22;35079;52.704;13.814;2024-02-21T10:21:29;10.10;99.90
49242;DHT22;35079;52.704;13.814;2024-02-21T10:35:04;10.20;99.90
49242;DHT22;35079;52.704;13.814;2024-02-21T10:37:34;10.40;99.90
49242;DHT22;35079;52.704;13.814;2024-02-21T10:40:00;10.70;99.90
49242;DHT22;35079;52.704;13.814;2024-02-21T10:42:29;10.70;99.90
49242;DHT22;35079;52.704;13.814;2024-02-21T10:45:01;10.80;99.90
49242;DHT22;35079;52.704;13.814;2024-02-21T10:47:32;10.90;99.90
49242;DHT22;35079;52.704;13.814;2024-02-21T10:50:04;10.90;99.90
49242;DHT22;35079;52.704;13.814;2024-02-21T10:52:56;10.80;99.90
49242;DHT22;35079;52.704;13.814;2024-02-21T10:55:38;10.70;99.90
49242;DHT22;35079;52.704;13.814;2024-02-21T10:58:07;10.70;99.90
49242;DHT22;35079;52.704;13.814;2024-02-21T11:00:33;10.60;99.90
49242;DHT22;35079;52.704;13.814;2024-02-21T11:03:00;10.60;99.90
49242;DHT22;35079;52.704;13.814;2024-02-21T11:05:26;10.60;99.90
49242;DHT22;35079;52.704;13.814;2024-02-21T11:07:53;10.70;99.90
49242;DHT22;35079;52.704;13.814;2024-02-21T11:10:23;10.60;99.90
49242;DHT22;35079;52.704;13.814;2024-02-21T11:12:53;10.60;99.90
49242;DHT22;35079;52.704;13.814;2024-02-21T11:15:31;10.50;99.90
49242;DHT22;35079;52.704;13.814;2024-02-21T11:18:09;10.40;99.90
49242;DHT22;35079;52.704;13.814;2024-02-21T11:21:10;10.40;99.90
49242;DHT22;35079;52.704;13.814;2024-02-21T11:27:24;10.40;99.90
49242;DHT22;35079;52.704;13.814;2024-02-21T11:30:04;10.40;99.90
49242;DHT22;35079;52.704;13.814;2024-02-21T11:32:47;10.40;99.90
49242;DHT22;35079;52.704;13.814;2024-02-21T11:38:23;10.40;99.90
49242;DHT22;35079;52.704;13.814;2024-02-21T11:40:59;10.40;99.90
49242;DHT22;35079;52.704;13.814;2024-02-21T11:49:51;10.40;99.90
49242;DHT22;35079;52.704;13.814;2024-02-21T11:52:29;10.50;99.90
49242;DHT22;35079;52.704;13.814;2024-02-21T11:54:55;10.60;99.90
49242;DHT22;35079;52.704;13.814;2024-02-21T11:57:23;10.80;99.90
49242;DHT22;35079;52.704;13.814;2024-02-21T11:59:50;11.20;99.90
49242;DHT22;35079;52.704;13.814;2024-02-21T12:02:17;11.70;99.90
49242;DHT22;35079;52.704;13.814;2024-02-21T12:04:44;11.80;99.90
49242;DHT22;35079;52.704;13.814;2024-02-21T12:07:09;11.80;99.90
49242;DHT22;35079;52.704;13.814;2024-02-21T12:09:35;11.70;99.90
49242;DHT22;35079;52.704;13.814;2024-02-21T12:14:29;12.00;99.90
49242;DHT22;35079;52.704;13.814;2024-02-21T12:16:56;12.60;99.90
49242;DHT22;35079;52.704;13.814;2024-02-21T12:19:21;12.90;99.90
49242;DHT22;35079;52.704;13.814;2024-02-21T12:21:48;12.90;99.90
49242;DHT22;35079;52.704;13.814;2024-02-21T12:24:22;13.10;99.90
49242;DHT22;35079;52.704;13.814;2024-02-21T12:26:52;13.30;99.90
49242;DHT22;35079;52.704;13.814;2024-02-21T12:29:21;13.50;99.90
49242;DHT22;35079;52.704;13.814;2024-02-21T12:31:47;13.40;99.90
49242;DHT22;35079;52.704;13.814;2024-02-21T12:34:15;13.10;99.90
49242;DHT22;35079;52.704;13.814;2024-02-21T12:36:45;12.90;99.90
49242;DHT22;35079;52.704;13.814;2024-02-21T12:39:13;12.70;99.90
49242;DHT22;35079;52.704;13.814;2024-02-21T12:41:39;12.60;99.90
49242;DHT22;35079;52.704;13.814;2024-02-21T12:44:06;12.60;99.90
49242;DHT22;35079;52.704;13.814;2024-02-21T12:46:35;12.70;99.90
49242;DHT22;35079;52.704;13.814;2024-02-21T12:49:02;12.60;99.90
49242;DHT22;35079;52.704;13.814;2024-02-21T12:51:29;12.70;99.90
49242;DHT22;35079;52.704;13.814;2024-02-21T12:53:54;12.70;99.90
49242;DHT22;35079;52.704;13.814;2024-02-21T12:56:20;12.40;99.90
49242;DHT22;35079;52.704;13.814;2024-02-21T12:58:46;12.50;99.90
49242;DHT22;35079;52.704;13.814;2024-02-21T13:01:12;12.60;99.90
49242;DHT22;35079;52.704;13.814;2024-02-21T13:03:37;12.60;99.90
49242;DHT22;35079;52.704;13.814;2024-02-21T13:06:04;12.60;99.90
49242;DHT22;35079;52.704;13.814;2024-02-21T13:08:29;12.50;99.90
49242;DHT22;35079;52.704;13.814;2024-02-21T13:10:55;12.50;99.90
49242;DHT22;35079;52.704;13.814;2024-02-21T13:13:21;12.60;99.90
49242;DHT22;35079;52.704;13.814;2024-02-21T13:15:46;12.60;99.90
49242;DHT22;35079;52.704;13.814;2024-02-21T13:18:12;12.70;99.90
49242;DHT22;35079;52.704;13.814;2024-02-21T13:20:38;12.70;99.90
49242;DHT22;35079;52.704;13.814;2024-02-21T13:23:03;12.80;99.90
49242;DHT22;35079;52.704;13.814;2024-02-21T13:25:29;12.70;99.90
49242;DHT22;35079;52.704;13.814;2024-02-21T13:27:55;12.70;99.90
49242;DHT22;35079;52.704;13.814;2024-02-21T13:30:22;12.60;99.90
49242;DHT22;35079;52.704;13.814;2024-02-21T13:32:47;12.60;99.90
49242;DHT22;35079;52.704;13.814;2024-02-21T13:35:14;12.40;99.90
49242;DHT22;35079;52.704;13.814;2024-02-21T13:37:41;12.30;99.90
49242;DHT22;35079;52.704;13.814;2024-02-21T13:40:07;12.30;99.90
49242;DHT22;35079;52.704;13.814;2024-02-21T13:42:37;12.30;99.90
49242;DHT22;35079;52.704;13.814;2024-02-21T13:45:03;12.30;99.90
49242;DHT22;35079;52.704;13.814;2024-02-21T13:47:31;12.30;99.90
49242;DHT22;35079;52.704;13.814;2024-02-21T13:49:57;12.30;99.90
49242;DHT22;35079;52.704;13.814;2024-02-21T13:52:22;12.20;99.90
49242;DHT22;35079;52.704;13.814;2024-02-21T13:54:51;12.10;99.90
49242;DHT22;35079;52.704;13.814;2024-02-21T13:57:17;12.00;99.90
49242;DHT22;35079;52.704;13.814;2024-02-21T13:59:43;12.00;99.90
49242;DHT22;35079;52.704;13.814;2024-02-21T14:02:09;11.90;99.90
49242;DHT22;35079;52.704;13.814;2024-02-21T14:04:35;11.90;99.90
49242;DHT22;35079;52.704;13.814;2024-02-21T14:07:01;11.80;99.90
49242;DHT22;35079;52.704;13.814;2024-02-21T14:09:27;11.70;99.90
49242;DHT22;35079;52.704;13.814;2024-02-21T14:11:55;11.60;99.90
49242;DHT22;35079;52.704;13.814;2024-02-21T14:14:20;11.60;99.90
49242;DHT22;35079;52.704;13.814;2024-02-21T14:16:46;11.60;99.90
49242;DHT22;35079;52.704;13.814;2024-02-21T14:19:15;11.50;99.90
49242;DHT22;35079;52.704;13.814;2024-02-21T14:21:41;11.40;99.90
49242;DHT22;35079;52.704;13.814;2024-02-21T14:24:06;11.40;99.90
49242;DHT22;35079;52.704;13.814;2024-02-21T14:26:33;11.40;99.90
49242;DHT22;35079;52.704;13.814;2024-02-21T14:28:59;11.30;99.90
49242;DHT22;35079;52.704;13.814;2024-02-21T14:31:25;11.20;99.90
49242;DHT22;35079;52.704;13.814;2024-02-21T14:33:51;11.20;99.90
49242;DHT22;35079;52.704;13.814;2024-02-21T14:36:18;11.10;99.90
49242;DHT22;35079;52.704;13.814;2024-02-21T14:38:44;11.10;99.90
49242;DHT22;35079;52.704;13.814;2024-02-21T14:41:10;11.10;99.90
49242;DHT22;35079;52.704;13.814;2024-02-21T14:43:38;11.00;99.90
49242;DHT22;35079;52.704;13.814;2024-02-21T14:46:04;11.00;99.90
49242;DHT22;35079;52.704;13.814;2024-02-21T14:48:31;11.00;99.90
49242;DHT22;35079;52.704;13.814;2024-02-21T14:50:58;11.00;99.90
49242;DHT22;35079;52.704;13.814;2024-02-21T14:53:24;10.90;99.90
49242;DHT22;35079;52.704;13.814;2024-02-21T14:55:50;10.90;99.90
49242;DHT22;35079;52.704;13.814;2024-02-21T14:58:19;10.90;99.90
49242;DHT22;35079;52.704;13.814;2024-02-21T15:00:45;10.90;99.90
49242;DHT22;35079;52.704;13.814;2024-02-21T15:03:12;10.80;99.90
49242;DHT22;35079;52.704;13.814;2024-02-21T15:05:41;10.80;99.90
49242;DHT22;35079;52.704;13.814;2024-02-21T15:08:07;10.80;99.90
49242;DHT22;35079;52.704;13.814;2024-02-21T15:10:35;10.80;99.90
49242;DHT22;35079;52.704;13.814;2024-02-21T15:13:01;10.70;99.90
49242;DHT22;35079;52.704;13.814;2024-02-21T15:15:28;10.70;99.90
49242;DHT22;35079;52.704;13.814;2024-02-21T15:17:54;10.60;99.90
49242;DHT22;35079;52.704;13.814;2024-02-21T15:20:20;10.60;99.90
49242;DHT22;35079;52.704;13.814;2024-02-21T15:22:46;10.60;99.90
49242;DHT22;35079;52.704;13.814;2024-02-21T15:25:30;10.50;99.90
49242;DHT22;35079;52.704;13.814;2024-02-21T15:27:56;10.50;99.90
49242;DHT22;35079;52.704;13.814;2024-02-21T15:30:22;10.60;99.90
49242;DHT22;35079;52.704;13.814;2024-02-21T15:32:48;10.50;99.90
49242;DHT22;35079;52.704;13.814;2024-02-21T15:35:33;10.50;99.90
49242;DHT22;35079;52.704;13.814;2024-02-21T15:38:15;10.50;99.90
49242;DHT22;35079;52.704;13.814;2024-02-21T15:41:07;10.40;99.90
49242;DHT22;35079;52.704;13.814;2024-02-21T15:47:45;10.40;99.90
49242;DHT22;35079;52.704;13.814;2024-02-21T15:50:38;10.40;99.90
49242;DHT22;35079;52.704;13.814;2024-02-21T16:14:17;10.10;99.90
49242;DHT22;35079;52.704;13.814;2024-02-21T16:20:46;9.90;99.90
49242;DHT22;35079;52.704;13.814;2024-02-21T16:24:18;9.90;99.90
49242;DHT22;35079;52.704;13.814;2024-02-21T16:29:58;9.80;99.90
49242;DHT22;35079;52.704;13.814;2024-02-21T16:32:33;9.80;99.90
49242;DHT22;35079;52.704;13.814;2024-02-21T16:35:35;9.70;99.90
49242;DHT22;35079;52.704;13.814;2024-02-21T16:38:32;9.70;99.90
49242;DHT22;35079;52.704;13.814;2024-02-21T16:40:58;9.60;99.90
49242;DHT22;35079;52.704;13.814;2024-02-21T16:43:39;9.60;99.90
49242;DHT22;35079;52.704;13.814;2024-02-21T16:46:29;9.60;99.90
49242;DHT22;35079;52.704;13.814;2024-02-21T16:49:22;9.50;99.90
49242;DHT22;35079;52.704;13.814;2024-02-21T16:51:51;9.50;99.90